sensor_id;sensor_type;location;lat;lon;timestamp;temperature;humidity
52024;DHT22;38038;45.922;13.604;2023-03-03T00:01:33;6.40;99.90
52024;DHT22;38038;45.922;13.604;2023-03-03T00:03:59;6.50;99.90
52024;DHT22;38038;45.922;13.604;2023-03-03T00:06:25;6.50;99.90
52024;DHT22;38038;45.922;13.604;2023-03-03T00:08:51;6.50;99.90
52024;DHT22;38038;45.922;13.604;2023-03-03T00:11:17;6.60;99.90
52024;DHT22;38038;45.922;13.604;2023-03-03T00:13:52;6.60;99.90
52024;DHT22;38038;45.922;13.604;2023-03-03T00:16:30;6.50;99.90
52024;DHT22;38038;45.922;13.604;2023-03-03T00:18:57;6.50;99.90
52024;DHT22;38038;45.922;13.604;2023-03-03T00:21:31;6.50;99.90
52024;DHT22;38038;45.922;13.604;2023-03-03T00:24:24;6.50;99.90
52024;DHT22;38038;45.922;13.604;2023-03-03T00:27:18;6.50;99.90
52024;DHT22;38038;45.922;13.604;2023-03-03T00:29:55;6.40;99.90
52024;DHT22;38038;45.922;13.604;2023-03-03T00:32:37;6.40;99.90
52024;DHT22;38038;45.922;13.604;2023-03-03T00:35:28;6.30;99.90
52024;DHT22;38038;45.922;13.604;2023-03-03T00:38:30;6.20;99.90
52024;DHT22;38038;45.922;13.604;2023-03-03T00:40:58;6.20;99.90
52024;DHT22;38038;45.922;13.604;2023-03-03T00:43:31;6.30;99.90
52024;DHT22;38038;45.922;13.604;2023-03-03T00:45:58;6.30;99.90
52024;DHT22;38038;45.922;13.604;2023-03-03T00:53:48;6.10;99.90
52024;DHT22;38038;45.922;13.604;2023-03-03T00:56:14;6.00;99.90
52024;DHT22;38038;45.922;13.604;2023-03-03T00:58:40;6.00;99.90
52024;DHT22;38038;45.922;13.604;2023-03-03T01:01:06;5.90;99.90
52024;DHT22;38038;45.922;13.604;2023-03-03T01:03:31;6.00;99.90
52024;DHT22;38038;45.922;13.604;2023-03-03T01:05:57;6.00;99.90
52024;DHT22;38038;45.922;13.604;2023-03-03T01:08:23;6.10;99.90
52024;DHT22;38038;45.922;13.604;2023-03-03T01:10:54;6.10;99.90
52024;DHT22;38038;45.922;13.604;2023-03-03T01:13:27;5.90;99.90
52024;DHT22;38038;45.922;13.604;2023-03-03T01:15:53;5.90;99.90
52024;DHT22;38038;45.922;13.604;2023-03-03T01:18:19;5.80;99.90
52024;DHT22;38038;45.922;13.604;2023-03-03T01:20:45;5.90;99.90
52024;DHT22;38038;45.922;13.604;2023-03-03T01:23:11;5.90;99.90
52024;DHT22;38038;45.922;13.604;2023-03-03T01:25:37;5.90;99.90
52024;DHT22;38038;45.922;13.604;2023-03-03T01:28:03;5.90;99.90
52024;DHT22;38038;45.922;13.604;2023-03-03T01:30:29;5.90;99.90
52024;DHT22;38038;45.922;13.604;2023-03-03T01:32:55;5.80;99.90
52024;DHT22;38038;45.922;13.604;2023-03-03T01:35:21;5.80;99.90
52024;DHT22;38038;45.922;13.604;2023-03-03T01:37:46;5.80;99.90
52024;DHT22;38038;45.922;13.604;2023-03-03T01:40:25;5.80;99.90
52024;DHT22;38038;45.922;13.604;2023-03-03T01:42:51;5.90;99.90
52024;DHT22;38038;45.922;13.604;2023-03-03T01:45:23;5.90;99.90
52024;DHT22;38038;45.922;13.604;2023-03-03T01:50:35;5.90;99.90
52024;DHT22;38038;45.922;13.604;2023-03-03T01:53:03;6.10;99.90
52024;DHT22;38038;45.922;13.604;2023-03-03T01:55:36;6.10;99.90
52024;DHT22;38038;45.922;13.604;2023-03-03T01:58:25;6.10;99.90
52024;DHT22;38038;45.922;13.604;2023-03-03T02:00:56;6.00;99.90
52024;DHT22;38038;45.922;13.604;2023-03-03T02:03:23;6.10;99.90
52024;DHT22;38038;45.922;13.604;2023-03-03T02:05:51;6.10;99.90
52024;DHT22;38038;45.922;13.604;2023-03-03T02:08:21;6.10;99.90
52024;DHT22;38038;45.922;13.604;2023-03-03T02:10:49;6.20;99.90
52024;DHT22;38038;45.922;13.604;2023-03-03T02:13:16;6.30;99.90
52024;DHT22;38038;45.922;13.604;2023-03-03T02:15:41;6.30;99.90
52024;DHT22;38038;45.922;13.604;2023-03-03T02:18:12;6.30;99.90
52024;DHT22;38038;45.922;13.604;2023-03-03T02:21:09;6.40;99.90
52024;DHT22;38038;45.922;13.604;2023-03-03T02:26:42;6.30;99.90
52024;DHT22;38038;45.922;13.604;2023-03-03T02:29:09;6.30;99.90
52024;DHT22;38038;45.922;13.604;2023-03-03T02:31:36;6.30;99.90
52024;DHT22;38038;45.922;13.604;2023-03-03T02:34:03;6.20;99.90
52024;DHT22;38038;45.922;13.604;2023-03-03T02:36:31;6.10;99.90
52024;DHT22;38038;45.922;13.604;2023-03-03T02:39:03;6.00;99.90
52024;DHT22;38038;45.922;13.604;2023-03-03T02:44:28;5.80;99.90
52024;DHT22;38038;45.922;13.604;2023-03-03T02:46:56;5.70;99.90
52024;DHT22;38038;45.922;13.604;2023-03-03T02:49:27;5.60;99.90
52024;DHT22;38038;45.922;13.604;2023-03-03T02:51:53;5.50;99.90
52024;DHT22;38038;45.922;13.604;2023-03-03T02:54:21;5.50;99.90
52024;DHT22;38038;45.922;13.604;2023-03-03T02:56:47;5.40;99.90
52024;DHT22;38038;45.922;13.604;2023-03-03T02:59:13;5.30;99.90
52024;DHT22;38038;45.922;13.604;2023-03-03T03:01:39;5.30;99.90
52024;DHT22;38038;45.922;13.604;2023-03-03T03:04:10;5.40;99.90
52024;DHT22;38038;45.922;13.604;2023-03-03T03:06:36;5.40;99.90
52024;DHT22;38038;45.922;13.604;2023-03-03T03:09:04;5.40;99.90
52024;DHT22;38038;45.922;13.604;2023-03-03T03:11:29;5.30;99.90
52024;DHT22;38038;45.922;13.604;2023-03-03T03:13:55;5.30;99.90
52024;DHT22;38038;45.922;13.604;2023-03-03T03:16:21;5.30;99.90
52024;DHT22;38038;45.922;13.604;2023-03-03T03:18:47;5.20;99.90
52024;DHT22;38038;45.922;13.604;2023-03-03T03:21:14;5.20;99.90
52024;DHT22;38038;45.922;13.604;2023-03-03T03:23:40;5.20;99.90
52024;DHT22;38038;45.922;13.604;2023-03-03T03:26:06;5.30;99.90
52024;DHT22;38038;45.922;13.604;2023-03-03T03:28:33;5.30;99.90
52024;DHT22;38038;45.922;13.604;2023-03-03T03:30:58;5.30;99.90
52024;DHT22;38038;45.922;13.604;2023-03-03T03:33:24;5.40;99.90
52024;DHT22;38038;45.922;13.604;2023-03-03T03:35:52;5.40;99.90
52024;DHT22;38038;45.922;13.604;2023-03-03T03:38:20;5.30;99.90
52024;DHT22;38038;45.922;13.604;2023-03-03T03:40:46;5.30;99.90
52024;DHT22;38038;45.922;13.604;2023-03-03T03:43:12;5.30;99.90
52024;DHT22;38038;45.922;13.604;2023-03-03T03:45:40;5.30;99.90
52024;DHT22;38038;45.922;13.604;2023-03-03T03:48:06;5.30;99.90
52024;DHT22;38038;45.922;13.604;2023-03-03T03:50:32;5.30;99.90
52024;DHT22;38038;45.922;13.604;2023-03-03T03:52:58;5.30;99.90
52024;DHT22;38038;45.922;13.604;2023-03-03T03:55:23;5.30;99.90
52024;DHT22;38038;45.922;13.604;2023-03-03T03:57:49;5.20;99.90
52024;DHT22;38038;45.922;13.604;2023-03-03T04:00:15;5.20;99.90
52024;DHT22;38038;45.922;13.604;2023-03-03T04:02:41;5.20;99.90
52024;DHT22;38038;45.922;13.604;2023-03-03T04:05:07;5.20;99.90
52024;DHT22;38038;45.922;13.604;2023-03-03T04:07:33;5.30;99.90
52024;DHT22;38038;45.922;13.604;2023-03-03T04:09:58;5.10;99.90
52024;DHT22;38038;45.922;13.604;2023-03-03T04:12:24;5.20;99.90
52024;DHT22;38038;45.922;13.604;2023-03-03T04:14:50;5.00;99.90
52024;DHT22;38038;45.922;13.604;2023-03-03T04:17:21;5.10;99.90
52024;DHT22;38038;45.922;13.604;2023-03-03T04:19:47;5.00;99.90
52024;DHT22;38038;45.922;13.604;2023-03-03T04:22:12;5.00;99.90
52024;DHT22;38038;45.922;13.604;2023-03-03T04:24:39;5.00;99.90
52024;DHT22;38038;45.922;13.604;2023-03-03T04:27:05;5.00;99.90
52024;DHT22;38038;45.922;13.604;2023-03-03T04:29:31;5.00;99.90
52024;DHT22;38038;45.922;13.604;2023-03-03T04:31:57;5.00;99.90
52024;DHT22;38038;45.922;13.604;2023-03-03T04:34:22;5.00;99.90
52024;DHT22;38038;45.922;13.604;2023-03-03T04:36:48;5.00;99.90
52024;DHT22;38038;45.922;13.604;2023-03-03T04:39:14;5.00;99.90
52024;DHT22;38038;45.922;13.604;2023-03-03T04:41:39;5.00;99.90
52024;DHT22;38038;45.922;13.604;2023-03-03T04:44:05;5.10;99.90
52024;DHT22;38038;45.922;13.604;2023-03-03T04:46:31;5.20;99.90
52024;DHT22;38038;45.922;13.604;2023-03-03T04:48:56;5.20;99.90
52024;DHT22;38038;45.922;13.604;2023-03-03T04:51:22;5.30;99.90
52024;DHT22;38038;45.922;13.604;2023-03-03T04:53:48;5.30;99.90
52024;DHT22;38038;45.922;13.604;2023-03-03T04:56:14;5.20;99.90
52024;DHT22;38038;45.922;13.604;2023-03-03T04:58:40;5.30;99.90
52024;DHT22;38038;45.922;13.604;2023-03-03T05:01:05;5.40;99.90
52024;DHT22;38038;45.922;13.604;2023-03-03T05:03:31;5.40;99.90
52024;DHT22;38038;45.922;13.604;2023-03-03T05:05:57;5.50;99.90
52024;DHT22;38038;45.922;13.604;2023-03-03T05:08:23;5.50;99.90
52024;DHT22;38038;45.922;13.604;2023-03-03T05:10:53;5.50;99.90
52024;DHT22;38038;45.922;13.604;2023-03-03T05:13:18;5.50;99.90
52024;DHT22;38038;45.922;13.604;2023-03-03T05:15:52;5.40;99.90
52024;DHT22;38038;45.922;13.604;2023-03-03T05:18:20;5.30;99.90
52024;DHT22;38038;45.922;13.604;2023-03-03T05:20:46;5.10;99.90
52024;DHT22;38038;45.922;13.604;2023-03-03T05:23:12;5.00;99.90
52024;DHT22;38038;45.922;13.604;2023-03-03T05:25:42;5.00;99.90
52024;DHT22;38038;45.922;13.604;2023-03-03T05:28:09;5.00;99.90
52024;DHT22;38038;45.922;13.604;2023-03-03T05:30:36;4.90;99.90
52024;DHT22;38038;45.922;13.604;2023-03-03T05:33:02;4.90;99.90
52024;DHT22;38038;45.922;13.604;2023-03-03T05:35:28;4.80;99.90
52024;DHT22;38038;45.922;13.604;2023-03-03T05:37:54;4.50;99.90
52024;DHT22;38038;45.922;13.604;2023-03-03T05:40:23;4.50;99.90
52024;DHT22;38038;45.922;13.604;2023-03-03T05:42:49;4.50;99.90
52024;DHT22;38038;45.922;13.604;2023-03-03T05:45:15;4.50;99.90
52024;DHT22;38038;45.922;13.604;2023-03-03T05:47:40;4.40;99.90
52024;DHT22;38038;45.922;13.604;2023-03-03T05:50:06;4.40;99.90
52024;DHT22;38038;45.922;13.604;2023-03-03T05:52:32;4.50;99.90
52024;DHT22;38038;45.922;13.604;2023-03-03T05:54:58;4.40;99.90
52024;DHT22;38038;45.922;13.604;2023-03-03T05:57:23;4.30;99.90
52024;DHT22;38038;45.922;13.604;2023-03-03T05:59:49;4.30;99.90
52024;DHT22;38038;45.922;13.604;2023-03-03T06:02:15;4.20;99.90
52024;DHT22;38038;45.922;13.604;2023-03-03T06:04:41;4.10;99.90
52024;DHT22;38038;45.922;13.604;2023-03-03T06:07:06;4.10;99.90
52024;DHT22;38038;45.922;13.604;2023-03-03T06:09:32;4.10;99.90
52024;DHT22;38038;45.922;13.604;2023-03-03T06:11:58;4.10;99.90
52024;DHT22;38038;45.922;13.604;2023-03-03T06:14:24;4.20;99.90
52024;DHT22;38038;45.922;13.604;2023-03-03T06:16:50;4.30;99.90
52024;DHT22;38038;45.922;13.604;2023-03-03T06:19:15;4.40;99.90
52024;DHT22;38038;45.922;13.604;2023-03-03T06:21:41;4.30;99.90
52024;DHT22;38038;45.922;13.604;2023-03-03T06:24:07;4.30;99.90
52024;DHT22;38038;45.922;13.604;2023-03-03T06:26:33;4.40;99.90
52024;DHT22;38038;45.922;13.604;2023-03-03T06:28:59;4.50;99.90
52024;DHT22;38038;45.922;13.604;2023-03-03T06:31:26;4.50;99.90
52024;DHT22;38038;45.922;13.604;2023-03-03T06:33:52;4.60;99.90
52024;DHT22;38038;45.922;13.604;2023-03-03T06:36:19;4.80;99.90
52024;DHT22;38038;45.922;13.604;2023-03-03T06:38:45;4.90;99.90
52024;DHT22;38038;45.922;13.604;2023-03-03T06:41:11;5.10;99.90
52024;DHT22;38038;45.922;13.604;2023-03-03T06:43:37;5.40;99.90
52024;DHT22;38038;45.922;13.604;2023-03-03T06:46:03;5.50;99.90
52024;DHT22;38038;45.922;13.604;2023-03-03T06:48:30;5.70;99.90
52024;DHT22;38038;45.922;13.604;2023-03-03T06:50:57;5.90;99.90
52024;DHT22;38038;45.922;13.604;2023-03-03T06:53:25;6.30;99.90
52024;DHT22;38038;45.922;13.604;2023-03-03T06:55:51;6.50;99.90
52024;DHT22;38038;45.922;13.604;2023-03-03T06:58:21;6.70;99.90
52024;DHT22;38038;45.922;13.604;2023-03-03T07:00:57;7.00;99.90
52024;DHT22;38038;45.922;13.604;2023-03-03T07:03:30;7.20;99.90
52024;DHT22;38038;45.922;13.604;2023-03-03T07:05:57;7.30;99.90
52024;DHT22;38038;45.922;13.604;2023-03-03T07:08:23;7.40;99.90
52024;DHT22;38038;45.922;13.604;2023-03-03T07:10:51;7.40;99.90
52024;DHT22;38038;45.922;13.604;2023-03-03T07:13:23;7.40;99.90
52024;DHT22;38038;45.922;13.604;2023-03-03T07:15:52;7.50;99.90
52024;DHT22;38038;45.922;13.604;2023-03-03T07:21:20;7.60;99.90
52024;DHT22;38038;45.922;13.604;2023-03-03T07:23:51;7.60;99.90
52024;DHT22;38038;45.922;13.604;2023-03-03T07:26:19;7.80;99.90
52024;DHT22;38038;45.922;13.604;2023-03-03T07:29:26;7.80;99.90
52024;DHT22;38038;45.922;13.604;2023-03-03T07:31:56;7.90;99.90
52024;DHT22;38038;45.922;13.604;2023-03-03T07:34:37;8.00;99.90
52024;DHT22;38038;45.922;13.604;2023-03-03T07:37:28;8.20;99.90
52024;DHT22;38038;45.922;13.604;2023-03-03T07:39:55;8.30;99.90
52024;DHT22;38038;45.922;13.604;2023-03-03T07:45:01;8.40;99.90
52024;DHT22;38038;45.922;13.604;2023-03-03T07:47:29;8.50;99.90
52024;DHT22;38038;45.922;13.604;2023-03-03T07:49:58;8.50;99.90
52024;DHT22;38038;45.922;13.604;2023-03-03T07:52:51;8.50;99.90
52024;DHT22;38038;45.922;13.604;2023-03-03T07:55:36;8.40;99.90
52024;DHT22;38038;45.922;13.604;2023-03-03T08:03:14;9.00;99.90
52024;DHT22;38038;45.922;13.604;2023-03-03T08:05:43;9.10;99.90
52024;DHT22;38038;45.922;13.604;2023-03-03T08:11:14;9.40;99.90
52024;DHT22;38038;45.922;13.604;2023-03-03T08:13:41;9.50;99.90
52024;DHT22;38038;45.922;13.604;2023-03-03T08:21:12;9.60;99.90
52024;DHT22;38038;45.922;13.604;2023-03-03T08:23:37;9.70;99.90
52024;DHT22;38038;45.922;13.604;2023-03-03T08:26:03;9.90;99.90
52024;DHT22;38038;45.922;13.604;2023-03-03T08:28:29;9.70;99.90
52024;DHT22;38038;45.922;13.604;2023-03-03T08:30:55;9.80;99.90
52024;DHT22;38038;45.922;13.604;2023-03-03T08:33:20;9.90;99.90
52024;DHT22;38038;45.922;13.604;2023-03-03T08:35:47;10.00;99.90
52024;DHT22;38038;45.922;13.604;2023-03-03T08:38:15;10.00;99.90
52024;DHT22;38038;45.922;13.604;2023-03-03T08:40:41;10.00;99.90
52024;DHT22;38038;45.922;13.604;2023-03-03T08:43:07;10.00;99.90
52024;DHT22;38038;45.922;13.604;2023-03-03T08:45:34;10.10;99.90
52024;DHT22;38038;45.922;13.604;2023-03-03T08:48:00;10.20;99.90
52024;DHT22;38038;45.922;13.604;2023-03-03T08:50:27;10.40;99.90
52024;DHT22;38038;45.922;13.604;2023-03-03T08:52:54;10.50;99.90
52024;DHT22;38038;45.922;13.604;2023-03-03T08:55:20;10.60;99.90
52024;DHT22;38038;45.922;13.604;2023-03-03T08:57:46;10.70;99.90
52024;DHT22;38038;45.922;13.604;2023-03-03T09:00:14;10.90;99.90
52024;DHT22;38038;45.922;13.604;2023-03-03T09:02:40;10.80;99.90
52024;DHT22;38038;45.922;13.604;2023-03-03T09:05:06;10.80;99.90
52024;DHT22;38038;45.922;13.604;2023-03-03T09:07:33;10.80;99.90
52024;DHT22;38038;45.922;13.604;2023-03-03T09:09:58;10.70;99.90
52024;DHT22;38038;45.922;13.604;2023-03-03T09:12:37;10.60;99.90
52024;DHT22;38038;45.922;13.604;2023-03-03T09:15:33;10.60;99.90
52024;DHT22;38038;45.922;13.604;2023-03-03T09:23:36;10.80;99.90
52024;DHT22;38038;45.922;13.604;2023-03-03T09:28:57;11.20;99.90
52024;DHT22;38038;45.922;13.604;2023-03-03T09:31:35;11.10;99.90
52024;DHT22;38038;45.922;13.604;2023-03-03T09:34:37;11.10;99.90
52024;DHT22;38038;45.922;13.604;2023-03-03T09:36:57;10.90;99.90
52024;DHT22;38038;45.922;13.604;2023-03-03T09:39:25;11.10;99.90
52024;DHT22;38038;45.922;13.604;2023-03-03T09:50:43;10.70;99.90
52024;DHT22;38038;45.922;13.604;2023-03-03T09:53:38;10.50;99.90
52024;DHT22;38038;45.922;13.604;2023-03-03T09:56:08;10.30;99.90
52024;DHT22;38038;45.922;13.604;2023-03-03T10:01:42;10.20;99.90
52024;DHT22;38038;45.922;13.604;2023-03-03T10:22:55;10.00;99.90
52024;DHT22;38038;45.922;13.604;2023-03-03T10:25:41;9.80;99.90
52024;DHT22;38038;45.922;13.604;2023-03-03T10:31:36;9.80;99.90
52024;DHT22;38038;45.922;13.604;2023-03-03T10:37:09;9.90;99.90
52024;DHT22;38038;45.922;13.604;2023-03-03T10:42:54;9.90;99.90
52024;DHT22;38038;45.922;13.604;2023-03-03T10:53:28;10.20;99.90
52024;DHT22;38038;45.922;13.604;2023-03-03T11:01:55;10.20;99.90
52024;DHT22;38038;45.922;13.604;2023-03-03T11:04:36;10.10;99.90
52024;DHT22;38038;45.922;13.604;2023-03-03T11:07:28;9.90;99.90
52024;DHT22;38038;45.922;13.604;2023-03-03T11:12:59;10.10;99.90
52024;DHT22;38038;45.922;13.604;2023-03-03T11:15:51;10.20;99.90
52024;DHT22;38038;45.922;13.604;2023-03-03T11:24:05;10.00;99.90
52024;DHT22;38038;45.922;13.604;2023-03-03T11:37:26;10.20;99.90
52024;DHT22;38038;45.922;13.604;2023-03-03T11:39:56;10.20;99.90
52024;DHT22;38038;45.922;13.604;2023-03-03T11:42:35;10.20;99.90
52024;DHT22;38038;45.922;13.604;2023-03-03T11:45:18;10.20;99.90
52024;DHT22;38038;45.922;13.604;2023-03-03T11:50:30;10.20;99.90
52024;DHT22;38038;45.922;13.604;2023-03-03T11:53:26;10.10;99.90
52024;DHT22;38038;45.922;13.604;2023-03-03T11:56:02;10.30;99.90
52024;DHT22;38038;45.922;13.604;2023-03-03T11:58:41;10.30;99.90
52024;DHT22;38038;45.922;13.604;2023-03-03T12:02:09;10.40;99.90
52024;DHT22;38038;45.922;13.604;2023-03-03T12:04:41;10.30;99.90
52024;DHT22;38038;45.922;13.604;2023-03-03T12:10:26;10.30;99.90
52024;DHT22;38038;45.922;13.604;2023-03-03T12:13:04;10.50;99.90
52024;DHT22;38038;45.922;13.604;2023-03-03T12:23:53;10.20;99.90
52024;DHT22;38038;45.922;13.604;2023-03-03T12:26:47;10.30;99.90
52024;DHT22;38038;45.922;13.604;2023-03-03T12:40:24;10.70;99.90
52024;DHT22;38038;45.922;13.604;2023-03-03T12:48:18;10.80;99.90
52024;DHT22;38038;45.922;13.604;2023-03-03T12:56:37;10.90;99.90
52024;DHT22;38038;45.922;13.604;2023-03-03T13:02:02;10.90;99.90
52024;DHT22;38038;45.922;13.604;2023-03-03T13:07:36;10.70;99.90
52024;DHT22;38038;45.922;13.604;2023-03-03T13:10:14;10.70;99.90
52024;DHT22;38038;45.922;13.604;2023-03-03T13:13:15;10.70;99.90
52024;DHT22;38038;45.922;13.604;2023-03-03T13:16:04;10.90;99.90
52024;DHT22;38038;45.922;13.604;2023-03-03T13:27:12;11.40;99.90
52024;DHT22;38038;45.922;13.604;2023-03-03T13:30:01;11.40;99.90
52024;DHT22;38038;45.922;13.604;2023-03-03T13:32:50;11.40;99.90
52024;DHT22;38038;45.922;13.604;2023-03-03T13:35:31;11.40;99.90
52024;DHT22;38038;45.922;13.604;2023-03-03T13:37:58;11.50;99.90
52024;DHT22;38038;45.922;13.604;2023-03-03T13:40:50;11.40;99.90
52024;DHT22;38038;45.922;13.604;2023-03-03T13:43:51;11.40;99.90
52024;DHT22;38038;45.922;13.604;2023-03-03T14:17:25;11.20;99.90
52024;DHT22;38038;45.922;13.604;2023-03-03T14:20:02;11.20;99.90
52024;DHT22;38038;45.922;13.604;2023-03-03T14:25:20;11.10;99.90
52024;DHT22;38038;45.922;13.604;2023-03-03T14:38:45;10.90;99.90
52024;DHT22;38038;45.922;13.604;2023-03-03T14:43:38;10.80;99.90
52024;DHT22;38038;45.922;13.604;2023-03-03T14:48:54;10.60;99.90
52024;DHT22;38038;45.922;13.604;2023-03-03T14:51:25;10.70;99.90
52024;DHT22;38038;45.922;13.604;2023-03-03T14:53:54;10.60;99.90
52024;DHT22;38038;45.922;13.604;2023-03-03T15:01:38;10.50;99.90
52024;DHT22;38038;45.922;13.604;2023-03-03T15:04:09;10.60;99.90
52024;DHT22;38038;45.922;13.604;2023-03-03T15:06:49;10.60;99.90
52024;DHT22;38038;45.922;13.604;2023-03-03T15:09:37;10.70;99.90
52024;DHT22;38038;45.922;13.604;2023-03-03T15:12:33;10.70;99.90
52024;DHT22;38038;45.922;13.604;2023-03-03T15:17:42;10.50;99.90
52024;DHT22;38038;45.922;13.604;2023-03-03T15:20:37;10.40;99.90
52024;DHT22;38038;45.922;13.604;2023-03-03T15:23:28;10.40;99.90
52024;DHT22;38038;45.922;13.604;2023-03-03T15:42:49;10.40;99.90
52024;DHT22;38038;45.922;13.604;2023-03-03T15:45:46;10.40;99.90
52024;DHT22;38038;45.922;13.604;2023-03-03T15:56:50;10.40;99.90
52024;DHT22;38038;45.922;13.604;2023-03-03T15:59:36;10.50;99.90
52024;DHT22;38038;45.922;13.604;2023-03-03T16:05:23;10.50;99.90
52024;DHT22;38038;45.922;13.604;2023-03-03T16:08:01;10.40;99.90
52024;DHT22;38038;45.922;13.604;2023-03-03T16:18:39;10.50;99.90
52024;DHT22;38038;45.922;13.604;2023-03-03T16:23:56;10.50;99.90
52024;DHT22;38038;45.922;13.604;2023-03-03T16:32:16;10.10;99.90
52024;DHT22;38038;45.922;13.604;2023-03-03T16:35:12;10.10;99.90
52024;DHT22;38038;45.922;13.604;2023-03-03T16:38:03;10.10;99.90
52024;DHT22;38038;45.922;13.604;2023-03-03T16:40:34;9.90;99.90
52024;DHT22;38038;45.922;13.604;2023-03-03T16:43:25;9.90;99.90
52024;DHT22;38038;45.922;13.604;2023-03-03T16:45:57;9.80;99.90
52024;DHT22;38038;45.922;13.604;2023-03-03T16:48:45;9.90;99.90
52024;DHT22;38038;45.922;13.604;2023-03-03T16:59:15;9.70;99.90
52024;DHT22;38038;45.922;13.604;2023-03-03T17:02:17;9.60;99.90
52024;DHT22;38038;45.922;13.604;2023-03-03T17:07:53;9.60;99.90
52024;DHT22;38038;45.922;13.604;2023-03-03T17:12:59;9.50;99.90
52024;DHT22;38038;45.922;13.604;2023-03-03T17:27:02;9.30;99.90
52024;DHT22;38038;45.922;13.604;2023-03-03T17:29:49;9.30;99.90
52024;DHT22;38038;45.922;13.604;2023-03-03T17:43:33;9.30;99.90
52024;DHT22;38038;45.922;13.604;2023-03-03T17:46:12;9.20;99.90
52024;DHT22;38038;45.922;13.604;2023-03-03T17:52:05;9.20;99.90
52024;DHT22;38038;45.922;13.604;2023-03-03T18:10:42;9.00;99.90
52024;DHT22;38038;45.922;13.604;2023-03-03T18:22:10;8.80;99.90
52024;DHT22;38038;45.922;13.604;2023-03-03T18:40:57;8.80;99.90
52024;DHT22;38038;45.922;13.604;2023-03-03T18:56:49;8.60;99.90
52024;DHT22;38038;45.922;13.604;2023-03-03T19:04:46;8.50;99.90
52024;DHT22;38038;45.922;13.604;2023-03-03T19:07:20;8.50;99.90
52024;DHT22;38038;45.922;13.604;2023-03-03T19:09:59;8.30;99.90
52024;DHT22;38038;45.922;13.604;2023-03-03T19:12:55;8.30;99.90
52024;DHT22;38038;45.922;13.604;2023-03-03T19:18:27;8.30;99.90
52024;DHT22;38038;45.922;13.604;2023-03-03T19:20:58;8.30;99.90
52024;DHT22;38038;45.922;13.604;2023-03-03T19:23:33;8.40;99.90
52024;DHT22;38038;45.922;13.604;2023-03-03T19:40:36;8.40;99.90
52024;DHT22;38038;45.922;13.604;2023-03-03T19:48:33;8.20;99.90
52024;DHT22;38038;45.922;13.604;2023-03-03T19:57:02;7.90;99.90
52024;DHT22;38038;45.922;13.604;2023-03-03T19:59:58;7.80;99.90
52024;DHT22;38038;45.922;13.604;2023-03-03T20:05:33;7.70;99.90
52024;DHT22;38038;45.922;13.604;2023-03-03T20:08:20;7.70;99.90
52024;DHT22;38038;45.922;13.604;2023-03-03T20:11:09;7.70;99.90
52024;DHT22;38038;45.922;13.604;2023-03-03T20:13:59;7.70;99.90
52024;DHT22;38038;45.922;13.604;2023-03-03T20:16:36;7.70;99.90
52024;DHT22;38038;45.922;13.604;2023-03-03T20:27:08;7.20;99.90
52024;DHT22;38038;45.922;13.604;2023-03-03T20:38:46;6.90;99.90
52024;DHT22;38038;45.922;13.604;2023-03-03T20:48:06;6.60;99.90
52024;DHT22;38038;45.922;13.604;2023-03-03T20:50:59;6.70;99.90
52024;DHT22;38038;45.922;13.604;2023-03-03T21:03:52;6.30;99.90
52024;DHT22;38038;45.922;13.604;2023-03-03T21:06:19;6.20;99.90
52024;DHT22;38038;45.922;13.604;2023-03-03T21:08:55;6.20;99.90
52024;DHT22;38038;45.922;13.604;2023-03-03T21:13:57;6.20;99.90
52024;DHT22;38038;45.922;13.604;2023-03-03T21:21:31;6.10;99.90
52024;DHT22;38038;45.922;13.604;2023-03-03T21:23:57;6.00;99.90
52024;DHT22;38038;45.922;13.604;2023-03-03T21:26:54;6.10;99.90
52024;DHT22;38038;45.922;13.604;2023-03-03T21:29:21;6.10;99.90
52024;DHT22;38038;45.922;13.604;2023-03-03T21:32:07;6.10;99.90
52024;DHT22;38038;45.922;13.604;2023-03-03T21:34:36;6.10;99.90
52024;DHT22;38038;45.922;13.604;2023-03-03T21:37:07;5.90;99.90
52024;DHT22;38038;45.922;13.604;2023-03-03T21:39:35;5.90;99.90
52024;DHT22;38038;45.922;13.604;2023-03-03T21:42:06;6.00;99.90
52024;DHT22;38038;45.922;13.604;2023-03-03T21:46:58;6.00;99.90
52024;DHT22;38038;45.922;13.604;2023-03-03T21:49:24;6.10;99.90
52024;DHT22;38038;45.922;13.604;2023-03-03T21:51:50;6.10;99.90
52024;DHT22;38038;45.922;13.604;2023-03-03T21:54:15;6.10;99.90
52024;DHT22;38038;45.922;13.604;2023-03-03T21:56:41;6.10;99.90
52024;DHT22;38038;45.922;13.604;2023-03-03T21:59:07;6.00;99.90
52024;DHT22;38038;45.922;13.604;2023-03-03T22:01:34;6.00;99.90
52024;DHT22;38038;45.922;13.604;2023-03-03T22:04:00;5.80;99.90
52024;DHT22;38038;45.922;13.604;2023-03-03T22:06:26;5.80;99.90
52024;DHT22;38038;45.922;13.604;2023-03-03T22:08:52;5.60;99.90
52024;DHT22;38038;45.922;13.604;2023-03-03T22:11:17;5.50;99.90
52024;DHT22;38038;45.922;13.604;2023-03-03T22:13:43;5.40;99.90
52024;DHT22;38038;45.922;13.604;2023-03-03T22:16:08;5.50;99.90
52024;DHT22;38038;45.922;13.604;2023-03-03T22:18:36;5.60;99.90
52024;DHT22;38038;45.922;13.604;2023-03-03T22:21:01;5.50;99.90
52024;DHT22;38038;45.922;13.604;2023-03-03T22:23:27;5.40;99.90
52024;DHT22;38038;45.922;13.604;2023-03-03T22:25:53;5.20;99.90
52024;DHT22;38038;45.922;13.604;2023-03-03T22:28:18;5.30;99.90
52024;DHT22;38038;45.922;13.604;2023-03-03T22:30:44;5.20;99.90
52024;DHT22;38038;45.922;13.604;2023-03-03T22:33:10;5.30;99.90
52024;DHT22;38038;45.922;13.604;2023-03-03T22:35:35;5.10;99.90
52024;DHT22;38038;45.922;13.604;2023-03-03T22:38:01;5.20;99.90
52024;DHT22;38038;45.922;13.604;2023-03-03T22:40:28;5.30;99.90
52024;DHT22;38038;45.922;13.604;2023-03-03T22:42:54;5.30;99.90
52024;DHT22;38038;45.922;13.604;2023-03-03T22:45:19;5.40;99.90
52024;DHT22;38038;45.922;13.604;2023-03-03T22:47:45;5.30;99.90
52024;DHT22;38038;45.922;13.604;2023-03-03T22:50:11;5.20;99.90
52024;DHT22;38038;45.922;13.604;2023-03-03T22:52:37;5.10;99.90
52024;DHT22;38038;45.922;13.604;2023-03-03T22:55:03;5.00;99.90
52024;DHT22;38038;45.922;13.604;2023-03-03T22:57:29;5.00;99.90
52024;DHT22;38038;45.922;13.604;2023-03-03T22:59:55;5.00;99.90
52024;DHT22;38038;45.922;13.604;2023-03-03T23:02:21;5.10;99.90
52024;DHT22;38038;45.922;13.604;2023-03-03T23:04:47;5.00;99.90
52024;DHT22;38038;45.922;13.604;2023-03-03T23:07:12;5.10;99.90
52024;DHT22;38038;45.922;13.604;2023-03-03T23:09:38;5.30;99.90
52024;DHT22;38038;45.922;13.604;2023-03-03T23:12:04;5.50;99.90
52024;DHT22;38038;45.922;13.604;2023-03-03T23:14:29;5.80;99.90
52024;DHT22;38038;45.922;13.604;2023-03-03T23:16:55;5.90;99.90
52024;DHT22;38038;45.922;13.604;2023-03-03T23:19:21;5.90;99.90